Time;durP1;ratioP1;P1;durP2;ratioP2;P2;SDS_P1;SDS_P2;PMS_P1;PMS_P2;Temp;Humidity;BMP_temperature;BMP_pressure;BME280_temperature;BME280_humidity;BME280_pressure;Samples;Min_cycle;Max_cycle;Signal;HPM_P1;HPM_P2
2021/12/16 00:09:00;;;;;;;;;26.50;23.25;;;;;8.25;78.01;102672.38;4885288;29;45569;-75
2021/12/16 00:33:33;;;;;;;;;20.00;20.00;;;;;8.38;76.49;102692.91;4933571;28;45419;-77
2021/12/16 00:36:00;;;;;;;;;24.00;17.00;;;;;8.37;77.27;102696.38;4917336;28;45383;-76
2021/12/16 00:38:26;;;;;;;;;24.50;22.25;;;;;8.40;76.67;102690.28;4933887;28;45478;-74
2021/12/16 00:40:51;;;;;;;;;20.75;19.25;;;;;8.40;76.58;102692.94;4933236;28;45561;-76
2021/12/16 00:43:25;;;;;;;;;30.50;26.50;;;;;8.40;77.09;102699.06;4915732;28;45419;-76
2021/12/16 00:46:15;;;;;;;;;19.50;12.25;;;;;8.41;76.86;102687.69;4913819;28;45523;-77
2021/12/16 00:56:33;;;;;;;;;21.75;21.75;;;;;8.48;76.33;102680.84;4914432;28;45596;-77
2021/12/16 00:59:00;;;;;;;;;24.50;21.00;;;;;8.48;76.26;102683.47;4946360;28;45436;-76
2021/12/16 01:01:41;;;;;;;;;24.75;19.00;;;;;8.48;76.46;102684.34;4955378;28;45959;-77
2021/12/16 01:47:51;;;;;;;;;28.00;15.75;;;;;8.54;75.99;102680.97;4977209;28;45492;-76
2021/12/16 01:50:25;;;;;;;;;30.25;23.00;;;;;8.54;76.40;102686.25;4976418;28;45338;-76
2021/12/16 01:55:37;;;;;;;;;32.00;21.25;;;;;8.54;76.02;102688.88;4973727;28;45437;-76
2021/12/16 01:58:14;;;;;;;;;26.50;24.75;;;;;8.56;75.92;102691.53;4977347;28;45468;-77
2021/12/16 02:00:53;;;;;;;;;30.50;23.50;;;;;8.58;76.14;102695.09;4976409;28;45479;-76
2021/12/16 02:03:25;;;;;;;;;27.75;23.00;;;;;8.57;75.77;102694.22;4977221;28;45576;-75
2021/12/16 02:06:02;;;;;;;;;24.25;22.75;;;;;8.54;75.60;102687.13;4976512;28;46048;-75
2021/12/16 02:08:33;;;;;;;;;27.50;22.75;;;;;8.56;76.05;102697.69;4964845;28;45549;-76
2021/12/16 02:11:23;;;;;;;;;33.25;23.25;;;;;8.59;76.47;102697.75;4975212;28;45508;-76
2021/12/16 02:27:32;;;;;;;;;21.75;18.50;;;;;8.61;75.84;102695.16;4957690;28;45710;-76
2021/12/16 02:35:28;;;;;;;;;26.50;25.00;;;;;8.62;75.64;102696.94;4972599;28;45488;-76
2021/12/16 02:37:54;;;;;;;;;22.50;19.25;;;;;8.64;75.35;102695.22;4975799;28;45369;-76
2021/12/16 02:40:20;;;;;;;;;24.25;21.50;;;;;8.63;75.10;102694.34;4976199;28;45413;-76
2021/12/16 02:43:24;;;;;;;;;23.00;18.00;;;;;8.63;75.01;102689.06;4976920;28;45401;-76
2021/12/16 02:48:31;;;;;;;;;24.50;17.00;;;;;8.66;75.47;102693.53;4965184;28;45879;-76
2021/12/16 02:51:08;;;;;;;;;20.75;19.50;;;;;8.68;75.01;102692.72;4976667;28;45496;-76
2021/12/16 02:53:36;;;;;;;;;22.25;16.50;;;;;8.65;75.14;102678.56;4976567;28;45405;-76
2021/12/16 02:56:02;;;;;;;;;21.25;19.00;;;;;8.69;75.25;102699.75;4976514;28;45575;-76
2021/12/16 02:58:28;;;;;;;;;27.50;16.00;;;;;8.73;75.07;102705.09;4975055;28;45391;-76
2021/12/16 03:01:03;;;;;;;;;32.00;25.25;;;;;8.74;76.09;102693.69;4974463;28;45409;-76
2021/12/16 03:03:29;;;;;;;;;26.25;20.50;;;;;8.76;75.42;102694.59;4974463;28;45516;-76
2021/12/16 03:05:55;;;;;;;;;28.25;22.75;;;;;8.76;75.83;102691.97;4958110;28;45543;-77
2021/12/16 03:08:21;;;;;;;;;34.50;25.75;;;;;8.78;75.07;102687.63;4975783;28;45913;-76
2021/12/16 03:13:31;;;;;;;;;25.75;22.75;;;;;8.77;75.27;102686.72;4956474;28;45345;-76
2021/12/16 03:21:20;;;;;;;;;20.25;16.50;;;;;8.84;75.13;102698.31;4975489;28;45486;-76
2021/12/16 03:37:16;;;;;;;;;24.00;19.50;;;;;8.86;74.31;102696.56;4963761;28;45552;-75
2021/12/16 03:39:50;;;;;;;;;26.00;20.25;;;;;8.93;74.71;102702.84;4946029;28;47160;-75
2021/12/16 03:42:21;;;;;;;;;24.00;20.00;;;;;8.94;74.66;102700.25;4974981;28;45429;-77
2021/12/16 03:44:57;;;;;;;;;25.00;23.75;;;;;8.96;74.60;102697.66;4964035;28;45437;-77
2021/12/16 03:47:47;;;;;;;;;27.00;20.00;;;;;8.96;74.33;102698.56;4966815;28;45490;-76
2021/12/16 03:50:17;;;;;;;;;25.50;22.25;;;;;8.96;73.98;102689.72;4951690;28;45458;-77
2021/12/16 03:52:44;;;;;;;;;23.00;19.50;;;;;9.01;73.91;102696.00;4974743;28;45709;-75
2021/12/16 03:55:11;;;;;;;;;21.25;17.00;;;;;8.99;74.10;102701.25;4973187;28;45558;-75
2021/12/16 03:57:37;;;;;;;;;19.25;15.50;;;;;9.02;74.12;102698.69;4974438;28;45578;-76
2021/12/16 04:00:13;;;;;;;;;19.25;17.00;;;;;9.03;73.66;102705.75;4975674;28;46222;-76
2021/12/16 04:02:40;;;;;;;;;22.00;19.00;;;;;9.01;73.90;102696.88;4974229;28;45415;-76
2021/12/16 04:05:08;;;;;;;;;33.75;30.50;;;;;9.02;75.51;102696.03;4983733;28;45428;-76
2021/12/16 04:07:36;;;;;;;;;33.25;26.75;;;;;9.05;75.49;102704.00;4994736;28;45638;-76
2021/12/16 04:10:06;;;;;;;;;36.00;33.25;;;;;9.03;75.83;102689.91;4966601;28;45501;-77
2021/12/16 04:12:40;;;;;;;;;40.50;35.75;;;;;9.04;76.35;102701.34;4974756;28;45379;-76
2021/12/16 04:15:07;;;;;;;;;43.00;35.75;;;;;9.04;76.36;102696.94;4974797;28;45412;-76
2021/12/16 04:17:34;;;;;;;;;39.75;34.50;;;;;9.06;76.53;102697.88;4974043;28;45390;-77
2021/12/16 04:20:01;;;;;;;;;39.25;33.50;;;;;9.04;76.57;102702.22;4975262;28;46406;-76
2021/12/16 04:22:33;;;;;;;;;35.00;30.00;;;;;9.05;76.50;102706.66;4990527;28;45411;-75
2021/12/16 04:25:02;;;;;;;;;30.00;25.75;;;;;9.05;76.65;102708.41;4974726;28;45472;-76
2021/12/16 04:27:29;;;;;;;;;38.00;34.00;;;;;9.07;76.21;102702.28;4974878;28;45470;-76
2021/12/16 04:29:54;;;;;;;;;30.75;24.50;;;;;9.07;76.20;102702.28;4974889;28;45535;-76
2021/12/16 04:32:21;;;;;;;;;32.00;27.00;;;;;9.06;76.59;102708.44;4957114;28;45394;-76
2021/12/16 04:34:47;;;;;;;;;29.00;27.00;;;;;9.10;76.13;102705.88;4965916;28;45437;-76
2021/12/16 04:37:13;;;;;;;;;35.50;31.00;;;;;9.12;75.99;102715.56;4955681;28;45433;-78
2021/12/16 04:39:40;;;;;;;;;43.00;35.50;;;;;9.11;76.30;102720.81;4961851;28;45374;-76
2021/12/16 04:42:07;;;;;;;;;34.75;30.75;;;;;9.14;76.22;102724.44;4974595;28;45397;-76
2021/12/16 04:44:33;;;;;;;;;47.00;36.50;;;;;9.14;76.62;102721.78;4972975;28;45437;-77
2021/12/16 04:47:03;;;;;;;;;37.50;30.00;;;;;9.14;76.72;102719.16;4956934;28;45416;-76
2021/12/16 04:49:29;;;;;;;;;37.00;32.50;;;;;9.14;75.54;102721.78;4974330;28;45567;-75
2021/12/16 04:51:58;;;;;;;;;33.50;27.75;;;;;9.11;75.68;102715.53;4973958;28;45433;-76
2021/12/16 04:54:27;;;;;;;;;28.25;25.25;;;;;9.18;75.41;102730.63;4974701;28;45426;-76
2021/12/16 04:56:54;;;;;;;;;30.75;29.25;;;;;9.17;75.91;102720.94;4974037;28;45570;-76
2021/12/16 04:59:20;;;;;;;;;29.25;25.50;;;;;9.14;75.29;102720.88;4973610;28;46437;-76
2021/12/16 05:01:53;;;;;;;;;30.75;26.75;;;;;9.17;75.82;102735.03;4974640;28;45481;-75
2021/12/16 05:04:19;;;;;;;;;27.25;27.25;;;;;9.20;75.55;102731.53;4973424;28;45381;-76
2021/12/16 05:06:44;;;;;;;;;31.25;25.50;;;;;9.17;75.16;102728.84;4974981;28;45648;-75
2021/12/16 05:09:20;;;;;;;;;36.50;26.50;;;;;9.19;75.41;102737.72;4974501;28;46055;-75
2021/12/16 05:11:46;;;;;;;;;25.25;22.00;;;;;9.20;75.33;102735.09;4973354;28;45464;-75
2021/12/16 05:14:11;;;;;;;;;31.25;28.25;;;;;9.21;75.31;102728.94;4974250;28;45464;-77
2021/12/16 05:16:37;;;;;;;;;30.75;24.50;;;;;9.23;75.39;102739.53;4974116;28;45493;-75
2021/12/16 05:19:03;;;;;;;;;32.00;27.50;;;;;9.23;75.16;102728.97;4974255;28;45350;-76
2021/12/16 05:21:44;;;;;;;;;42.75;28.25;;;;;9.19;75.11;102732.44;4971467;28;45660;-76
2021/12/16 05:24:28;;;;;;;;;26.50;21.50;;;;;9.22;74.86;102724.56;4971619;28;45432;-77
2021/12/16 05:27:03;;;;;;;;;26.50;24.75;;;;;9.21;74.51;102721.03;4954604;28;45544;-76
2021/12/16 05:29:29;;;;;;;;;24.50;24.00;;;;;9.28;74.18;102724.69;4954841;28;45565;-75
2021/12/16 05:31:55;;;;;;;;;21.75;21.25;;;;;9.29;74.58;102739.66;4969238;28;45485;-76
2021/12/16 05:34:22;;;;;;;;;28.75;24.00;;;;;9.29;73.89;102733.50;4956740;28;45440;-77
2021/12/16 05:36:49;;;;;;;;;23.00;18.00;;;;;9.22;73.88;102719.28;4977579;28;45454;-77
2021/12/16 05:39:17;;;;;;;;;23.25;20.50;;;;;9.31;73.86;102737.06;4976015;28;45509;-80
2021/12/16 05:41:43;;;;;;;;;32.00;22.75;;;;;9.32;73.82;102738.81;4956614;28;45331;-80
2021/12/16 05:44:08;;;;;;;;;18.00;16.50;;;;;9.36;73.57;102738.03;4974095;28;45467;-79
2021/12/16 05:46:34;;;;;;;;;22.50;17.00;;;;;9.37;73.67;102747.75;4973788;28;45558;-80
2021/12/16 05:49:03;;;;;;;;;18.50;17.25;;;;;9.37;73.34;102747.75;4973612;28;47599;-80
2021/12/16 05:51:35;;;;;;;;;22.50;17.75;;;;;9.38;73.35;102755.69;4974278;28;45365;-79
2021/12/16 05:54:03;;;;;;;;;18.25;15.25;;;;;9.40;73.16;102748.69;4976214;28;45516;-80
2021/12/16 05:56:29;;;;;;;;;23.00;19.00;;;;;9.39;72.77;102748.66;4975211;28;45308;-80
2021/12/16 05:58:55;;;;;;;;;18.00;12.50;;;;;9.41;72.50;102758.38;4978201;28;45375;-81
2021/12/16 06:01:26;;;;;;;;;25.00;22.50;;;;;9.45;72.75;102758.44;4986883;28;45307;-81
2021/12/16 06:03:53;;;;;;;;;21.25;19.25;;;;;9.47;72.49;102762.88;4974303;28;45464;-80
2021/12/16 06:06:19;;;;;;;;;18.75;17.25;;;;;9.44;72.85;102760.16;4973105;28;45451;-80
2021/12/16 06:08:46;;;;;;;;;21.75;19.50;;;;;9.49;72.55;102757.63;4974291;28;46132;-79
2021/12/16 06:11:18;;;;;;;;;23.00;22.00;;;;;9.46;72.76;102752.28;4975766;28;45480;-80
2021/12/16 06:13:57;;;;;;;;;21.00;20.00;;;;;9.48;73.00;102755.88;4979020;28;45555;-79
2021/12/16 06:27:22;;;;;;;;;29.25;23.00;;;;;9.48;73.72;102769.06;4979385;28;45445;-81
2021/12/16 06:29:49;;;;;;;;;34.75;27.25;;;;;9.48;73.84;102758.50;4977371;28;46551;-81
2021/12/16 06:32:15;;;;;;;;;34.00;28.50;;;;;9.45;73.93;102761.09;4977073;28;45540;-80
2021/12/16 06:34:42;;;;;;;;;29.00;27.00;;;;;9.45;74.39;102764.59;4977281;28;45500;-82
2021/12/16 06:37:09;;;;;;;;;30.50;27.00;;;;;9.43;74.10;102764.56;4978536;28;45478;-81
2021/12/16 06:39:35;;;;;;;;;33.25;28.00;;;;;9.44;74.54;102765.44;4968433;28;45963;-81
2021/12/16 06:42:04;;;;;;;;;36.75;30.00;;;;;9.47;74.53;102764.63;4977446;28;45466;-80
2021/12/16 06:44:36;;;;;;;;;29.00;27.50;;;;;9.47;74.30;102764.63;4973270;28;45601;-80
2021/12/16 06:47:07;;;;;;;;;29.00;25.75;;;;;9.48;74.13;102767.31;4956297;28;45569;-81
2021/12/16 06:49:35;;;;;;;;;23.75;22.50;;;;;9.43;74.08;102768.97;4956574;28;46120;-80
2021/12/16 06:52:05;;;;;;;;;34.00;27.50;;;;;9.48;74.58;102769.06;4939939;28;45427;-81
2021/12/16 06:54:43;;;;;;;;;29.25;23.75;;;;;9.45;73.97;102769.00;4969418;28;45505;-81
2021/12/16 06:57:27;;;;;;;;;24.50;21.75;;;;;9.42;73.94;102772.47;4979697;28;45546;-81
2021/12/16 07:00:06;;;;;;;;;34.75;31.50;;;;;9.43;74.18;102784.81;4977009;28;45345;-80
2021/12/16 07:05:07;;;;;;;;;26.00;23.00;;;;;9.41;74.23;102774.22;4967706;28;45347;-80
2021/12/16 07:07:32;;;;;;;;;26.50;21.25;;;;;9.39;73.76;102775.91;4977031;28;45592;-81
2021/12/16 07:09:58;;;;;;;;;25.00;23.50;;;;;9.47;74.13;102791.03;4958643;28;46288;-81
2021/12/16 07:12:35;;;;;;;;;32.00;27.75;;;;;9.46;74.18;102789.25;4977706;28;45536;-81
2021/12/16 07:15:08;;;;;;;;;28.25;25.50;;;;;9.41;74.11;102782.16;4977204;28;45376;-80
2021/12/16 07:17:34;;;;;;;;;32.50;27.25;;;;;9.48;74.71;102795.47;4980089;28;45378;-81
2021/12/16 07:19:59;;;;;;;;;25.75;24.50;;;;;9.43;73.94;102785.69;4977113;28;45607;-81
2021/12/16 07:22:25;;;;;;;;;26.50;24.50;;;;;9.42;74.33;102788.31;4976541;28;45569;-80
2021/12/16 07:24:50;;;;;;;;;21.25;20.50;;;;;9.46;73.84;102794.50;4975945;28;45511;-81
2021/12/16 07:27:16;;;;;;;;;24.75;20.75;;;;;9.47;74.17;102785.75;4982482;28;45455;-82
2021/12/16 07:29:42;;;;;;;;;25.25;19.75;;;;;9.44;74.06;102778.66;4978903;28;46395;-82
2021/12/16 07:32:08;;;;;;;;;24.75;20.75;;;;;9.48;73.99;102787.53;4975658;28;45571;-82
2021/12/16 07:34:34;;;;;;;;;24.75;21.25;;;;;9.49;74.22;102794.56;4975697;28;45499;-82
2021/12/16 07:37:01;;;;;;;;;30.00;26.75;;;;;9.51;74.31;102803.44;4976264;28;45597;-82
2021/12/16 07:39:37;;;;;;;;;24.00;24.00;;;;;9.49;74.25;102794.56;4979807;28;45396;-82
2021/12/16 07:42:03;;;;;;;;;28.50;24.75;;;;;9.53;74.81;102804.34;4981901;28;45348;-82
2021/12/16 07:44:28;;;;;;;;;26.50;23.00;;;;;9.45;73.88;102776.91;4985568;28;45467;-81
2021/12/16 07:47:01;;;;;;;;;24.50;20.00;;;;;9.53;74.23;102796.44;4958953;28;45326;-83
2021/12/16 07:49:30;;;;;;;;;21.75;20.50;;;;;9.53;74.40;102793.78;4975434;28;45512;-82
2021/12/16 07:51:57;;;;;;;;;32.00;25.50;;;;;9.55;74.03;102798.25;4976798;28;45472;-83
2021/12/16 07:54:24;;;;;;;;;25.50;21.50;;;;;9.54;73.93;102798.22;4962449;28;45450;-82
2021/12/16 07:56:52;;;;;;;;;25.25;21.75;;;;;9.55;74.35;102794.69;4969207;28;45593;-82
2021/12/16 07:59:19;;;;;;;;;19.00;17.25;;;;;9.53;74.43;102793.78;4981680;28;46007;-82
2021/12/16 08:01:46;;;;;;;;;29.25;23.75;;;;;9.55;73.73;102799.97;4979700;28;45731;-83
2021/12/16 08:04:21;;;;;;;;;34.00;24.00;;;;;9.56;74.35;102804.41;4979760;28;45381;-83
2021/12/16 08:06:50;;;;;;;;;28.25;24.50;;;;;9.57;74.16;102806.19;4984043;28;45420;-82
2021/12/16 08:09:16;;;;;;;;;30.50;26.50;;;;;9.56;74.38;102814.97;4985966;28;47165;-81
2021/12/16 08:11:43;;;;;;;;;20.50;13.00;;;;;9.60;73.87;102817.69;4984703;28;45380;-81
2021/12/16 08:14:10;;;;;;;;;27.25;23.00;;;;;9.63;74.21;102822.16;4984023;28;45528;-81
2021/12/16 08:16:37;;;;;;;;;28.00;24.00;;;;;9.66;74.24;102816.06;4970595;28;45373;-81
2021/12/16 08:19:06;;;;;;;;;31.75;23.50;;;;;9.62;73.82;102812.44;4962502;28;46253;-80
2021/12/16 08:21:31;;;;;;;;;31.00;24.00;;;;;9.70;73.88;102831.06;4963554;28;45395;-81
2021/12/16 08:23:59;;;;;;;;;27.25;24.50;;;;;9.74;73.62;102828.53;4963946;28;45359;-81
2021/12/16 08:26:26;;;;;;;;;28.25;26.25;;;;;9.77;73.87;102825.94;4977690;28;45448;-81
2021/12/16 08:28:52;;;;;;;;;26.25;22.75;;;;;9.78;73.71;102829.50;4963050;28;46110;-80
2021/12/16 08:31:19;;;;;;;;;18.00;18.00;;;;;9.82;73.93;102822.50;4959956;28;45588;-79
2021/12/16 08:33:46;;;;;;;;;27.00;20.00;;;;;9.85;73.39;102823.44;4969184;28;45474;-84
2021/12/16 08:36:12;;;;;;;;;26.00;23.25;;;;;9.85;73.51;102819.91;4942623;28;45488;-80
2021/12/16 08:38:38;;;;;;;;;22.50;17.25;;;;;9.89;73.31;102827.03;4957336;28;45513;-81
2021/12/16 08:41:11;;;;;;;;;19.25;19.25;;;;;9.90;73.41;102827.06;4981620;28;45825;-81
2021/12/16 08:43:41;;;;;;;;;29.75;27.00;;;;;9.93;73.12;102831.53;4968766;28;45461;-77
2021/12/16 08:46:08;;;;;;;;;26.00;24.50;;;;;9.96;72.92;102832.47;4975564;28;45424;-76
2021/12/16 08:48:35;;;;;;;;;24.00;22.00;;;;;9.99;72.94;102838.66;4975006;28;46161;-82
2021/12/16 08:51:01;;;;;;;;;22.25;21.50;;;;;10.01;72.84;102836.97;4975111;28;45556;-82
2021/12/16 08:53:26;;;;;;;;;28.00;23.75;;;;;10.01;72.53;102842.25;4976243;28;45416;-80
2021/12/16 08:55:55;;;;;;;;;33.50;21.50;;;;;10.03;72.16;102840.50;4958940;28;45547;-80
2021/12/16 08:58:23;;;;;;;;;26.50;21.00;;;;;10.03;72.19;102846.66;4962905;28;46172;-79
2021/12/16 09:00:55;;;;;;;;;26.50;22.25;;;;;10.07;72.05;102843.22;4949549;28;45674;-77
2021/12/16 09:03:20;;;;;;;;;11.75;7.75;;;;;10.12;71.53;102841.53;4973833;28;45589;-76
2021/12/16 09:05:46;;;;;;;;;25.50;23.75;;;;;10.14;71.32;102845.13;4965208;28;45544;-79
2021/12/16 09:08:11;;;;;;;;;17.75;17.75;;;;;10.19;71.91;102841.66;4966512;28;46204;-76
2021/12/16 09:10:38;;;;;;;;;26.25;24.50;;;;;10.22;71.35;102849.63;4961001;28;45449;-76
2021/12/16 09:13:10;;;;;;;;;22.00;20.50;;;;;10.26;70.95;102844.47;4964439;28;45482;-75
2021/12/16 09:15:41;;;;;;;;;21.75;16.00;;;;;10.29;70.27;102848.88;4951128;28;45568;-76
2021/12/16 09:18:09;;;;;;;;;23.75;18.00;;;;;10.32;69.27;102854.22;4975544;28;46270;-76
2021/12/16 09:20:35;;;;;;;;;13.75;11.00;;;;;10.34;69.64;102851.63;4968767;28;45383;-76
2021/12/16 09:23:06;;;;;;;;;15.00;12.50;;;;;10.37;69.19;102849.97;4956233;28;45417;-75
2021/12/16 09:25:32;;;;;;;;;22.75;18.00;;;;;10.39;69.51;102853.50;4947785;28;45568;-77
2021/12/16 09:27:58;;;;;;;;;23.25;17.50;;;;;10.45;68.93;102861.53;4963634;28;45516;-81
2021/12/16 09:30:25;;;;;;;;;21.75;18.50;;;;;10.48;68.89;102869.53;4970446;28;45404;-80
2021/12/16 09:32:53;;;;;;;;;15.75;12.00;;;;;10.51;68.30;102862.50;4967065;28;45408;-81
2021/12/16 09:35:20;;;;;;;;;15.50;12.00;;;;;10.56;68.24;102863.47;4954251;28;45500;-80
2021/12/16 09:37:48;;;;;;;;;21.75;17.00;;;;;10.57;67.80;102865.28;4964530;28;45528;-80
2021/12/16 09:40:19;;;;;;;;;16.50;13.75;;;;;10.62;67.77;102869.75;4969304;28;45384;-79
2021/12/16 09:42:44;;;;;;;;;19.75;15.75;;;;;10.68;67.28;102868.09;4962968;28;45313;-77
2021/12/16 09:45:12;;;;;;;;;15.75;12.75;;;;;10.71;66.78;102878.72;4976650;28;45283;-79
2021/12/16 09:47:39;;;;;;;;;16.75;13.00;;;;;10.68;66.21;102879.53;4969933;28;45405;-82
2021/12/16 09:50:10;;;;;;;;;11.25;10.00;;;;;10.74;66.36;102884.94;4973427;28;45549;-80
2021/12/16 09:52:36;;;;;;;;;15.00;14.75;;;;;10.76;66.19;102888.47;4971508;28;45389;-82
2021/12/16 09:55:02;;;;;;;;;11.50;11.50;;;;;10.76;66.29;102877.00;4962510;28;45410;-76
2021/12/16 09:57:28;;;;;;;;;12.75;12.50;;;;;10.83;66.32;102884.19;4968829;28;45940;-77
2021/12/16 09:59:55;;;;;;;;;16.00;14.25;;;;;10.77;65.91;102884.09;4966335;28;45487;-77
2021/12/16 10:02:22;;;;;;;;;15.25;14.50;;;;;10.78;65.66;102886.75;4968731;28;45473;-76
2021/12/16 10:04:48;;;;;;;;;18.00;14.75;;;;;10.83;66.02;102893.00;4970559;28;45330;-78
2021/12/16 10:07:24;;;;;;;;;11.00;11.00;;;;;10.88;66.51;102886.91;4951433;28;46157;-78
2021/12/16 10:09:54;;;;;;;;;20.75;20.00;;;;;10.89;66.33;102894.00;4967285;28;45434;-77
2021/12/16 10:12:24;;;;;;;;;16.75;11.75;;;;;10.89;66.16;102894.00;4955304;28;45471;-76
2021/12/16 10:17:31;;;;;;;;;22.50;17.00;;;;;10.92;66.43;102894.91;4957431;28;45496;-77
2021/12/16 10:20:09;;;;;;;;;18.50;18.50;;;;;10.90;66.43;102890.44;4963944;28;45433;-82
2021/12/16 10:22:42;;;;;;;;;20.75;17.25;;;;;10.92;66.34;102897.56;4962109;28;45579;-80
2021/12/16 10:25:22;;;;;;;;;20.75;18.00;;;;;10.91;66.34;102893.13;4973480;28;45475;-82
2021/12/16 10:28:23;;;;;;;;;21.25;17.00;;;;;11.00;66.70;102892.38;4972502;28;47763;-77
2021/12/16 10:31:02;;;;;;;;;19.50;16.00;;;;;11.05;66.13;102887.16;4964070;28;45472;-75
2021/12/16 10:33:38;;;;;;;;;25.25;17.00;;;;;11.06;66.59;102892.47;4961923;28;45473;-76
2021/12/16 10:36:15;;;;;;;;;24.00;22.00;;;;;11.08;66.09;102888.06;4967140;28;45626;-77
2021/12/16 10:38:46;;;;;;;;;20.75;15.75;;;;;11.10;66.18;102894.31;4972035;28;45676;-74
2021/12/16 10:41:17;;;;;;;;;21.50;16.50;;;;;11.06;66.21;102889.81;4952721;28;45389;-77
2021/12/16 10:44:06;;;;;;;;;13.75;13.25;;;;;11.11;65.87;102890.75;4981046;28;45374;-81
2021/12/16 10:46:39;;;;;;;;;24.75;22.75;;;;;11.08;65.61;102882.78;4976031;28;45366;-77
2021/12/16 10:49:13;;;;;;;;;23.00;21.00;;;;;11.13;65.62;102888.13;4974876;28;45506;-82
2021/12/16 10:51:50;;;;;;;;;20.25;17.75;;;;;11.19;65.86;102894.44;4970279;28;45526;-82
2021/12/16 10:54:24;;;;;;;;;20.25;17.25;;;;;11.20;65.20;102884.72;4976659;28;45322;-82
2021/12/16 10:57:02;;;;;;;;;26.50;19.00;;;;;11.17;65.44;102890.88;4971955;28;45484;-83
2021/12/16 10:59:35;;;;;;;;;17.00;14.75;;;;;11.15;65.12;102891.72;4968129;28;45519;-82
2021/12/16 11:02:15;;;;;;;;;11.25;7.00;;;;;11.18;64.94;102895.28;4965654;28;45618;-82
2021/12/16 11:04:42;;;;;;;;;21.50;14.75;;;;;11.25;65.39;102882.13;4971133;28;45456;-82
2021/12/16 11:07:21;;;;;;;;;20.75;19.00;;;;;11.30;64.99;102893.69;4967743;28;45502;-82
2021/12/16 11:10:08;;;;;;;;;20.25;16.75;;;;;11.29;64.83;102889.25;4952084;28;46736;-82
2021/12/16 11:13:01;;;;;;;;;22.25;19.75;;;;;11.29;64.92;102891.91;4951843;28;46168;-81
2021/12/16 11:15:35;;;;;;;;;25.25;18.25;;;;;11.30;65.27;102885.75;4966770;28;45387;-82
2021/12/16 11:18:13;;;;;;;;;25.25;24.75;;;;;11.32;64.68;102895.47;4972891;28;45450;-83
2021/12/16 11:20:55;;;;;;;;;34.00;30.00;;;;;11.35;64.55;102894.63;4969712;28;47217;-81
2021/12/16 11:23:23;;;;;;;;;22.25;19.25;;;;;11.37;64.95;102898.19;4968925;28;45441;-82
2021/12/16 11:25:56;;;;;;;;;28.00;20.00;;;;;11.40;64.90;102892.06;4971097;28;45534;-77
2021/12/16 11:28:29;;;;;;;;;23.50;23.50;;;;;11.40;64.85;102889.41;4963974;28;45332;-77
2021/12/16 11:31:04;;;;;;;;;26.50;22.50;;;;;11.39;63.87;102907.06;4959106;28;46951;-77
2021/12/16 11:33:46;;;;;;;;;27.00;17.50;;;;;11.40;63.96;102887.63;4968474;28;45667;-80
2021/12/16 11:36:15;;;;;;;;;36.25;34.75;;;;;11.35;63.93;102894.63;4944789;28;45653;-77
2021/12/16 11:38:49;;;;;;;;;20.00;18.50;;;;;11.31;63.70;102888.41;4975255;28;45450;-81
2021/12/16 11:41:17;;;;;;;;;26.50;21.50;;;;;11.35;64.25;102890.22;4965886;28;45968;-77
2021/12/16 11:43:54;;;;;;;;;25.75;21.00;;;;;11.36;63.57;102888.47;4967406;28;45382;-77
2021/12/16 11:46:30;;;;;;;;;28.00;24.75;;;;;11.40;63.64;102887.63;4963757;28;45332;-77
2021/12/16 11:49:01;;;;;;;;;17.25;17.25;;;;;11.39;64.32;102880.56;4967511;28;45640;-82
2021/12/16 11:51:31;;;;;;;;;31.75;23.50;;;;;11.41;63.95;102885.91;4960830;28;45562;-81
2021/12/16 11:54:02;;;;;;;;;22.50;18.50;;;;;11.45;64.52;102885.94;4959672;28;45573;-83
2021/12/16 11:56:52;;;;;;;;;23.50;21.00;;;;;11.47;64.26;102872.72;4964867;28;45433;-82
2021/12/16 11:59:38;;;;;;;;;27.00;23.50;;;;;11.44;64.59;102872.69;4976633;28;45480;-81
2021/12/16 12:02:06;;;;;;;;;26.00;20.00;;;;;11.50;64.29;102888.66;4970153;28;46220;-83
2021/12/16 12:04:35;;;;;;;;;25.75;22.75;;;;;11.48;63.94;102877.16;4978704;28;45600;-83
2021/12/16 12:07:10;;;;;;;;;22.25;19.25;;;;;11.41;63.66;102873.53;4959878;28;45589;-82
2021/12/16 12:09:40;;;;;;;;;24.00;22.50;;;;;11.42;64.18;102875.31;4971284;28;45429;-83
2021/12/16 12:12:06;;;;;;;;;17.00;16.00;;;;;11.48;64.23;102883.34;4957443;28;46272;-77
2021/12/16 12:14:37;;;;;;;;;24.50;22.75;;;;;11.48;63.78;102872.75;4962943;28;45489;-78
2021/12/16 12:17:16;;;;;;;;;25.75;20.75;;;;;11.49;64.01;102870.97;4969980;28;45396;-76
2021/12/16 12:19:48;;;;;;;;;20.75;19.25;;;;;11.49;64.32;102873.63;4970680;28;45500;-83
2021/12/16 12:22:14;;;;;;;;;26.00;23.75;;;;;11.49;63.84;102868.34;4974168;28;46028;-83
2021/12/16 12:24:46;;;;;;;;;28.50;23.25;;;;;11.52;64.03;102865.72;4975274;28;45584;-83
2021/12/16 12:27:15;;;;;;;;;27.25;24.00;;;;;11.51;63.57;102859.53;4967295;28;45581;-83
2021/12/16 12:29:44;;;;;;;;;25.25;21.50;;;;;11.55;64.21;102866.66;4970383;28;45514;-80
2021/12/16 12:32:12;;;;;;;;;35.00;30.50;;;;;11.50;63.56;102865.69;4974880;28;46342;-83
2021/12/16 12:34:39;;;;;;;;;22.00;19.50;;;;;11.52;63.47;102865.72;4973065;28;45375;-82
2021/12/16 12:37:08;;;;;;;;;22.50;17.25;;;;;11.44;63.88;102841.78;4964122;28;45392;-81
2021/12/16 12:39:46;;;;;;;;;23.00;18.75;;;;;11.56;63.84;102863.13;4966020;28;45424;-81
2021/12/16 12:42:13;;;;;;;;;32.00;28.75;;;;;11.53;63.50;102863.09;4962168;28;45449;-82
2021/12/16 12:44:40;;;;;;;;;22.75;22.50;;;;;11.56;63.74;102857.84;4978045;28;45441;-85
2021/12/16 12:47:12;;;;;;;;;23.00;20.00;;;;;11.61;63.93;102860.53;4973663;28;45456;-83
2021/12/16 12:49:38;;;;;;;;;23.25;21.25;;;;;11.56;63.47;102841.06;4967521;28;45433;-77
2021/12/16 12:52:09;;;;;;;;;24.50;19.00;;;;;11.64;62.90;102854.38;4981949;28;46202;-83
2021/12/16 12:54:36;;;;;;;;;23.25;18.50;;;;;11.67;62.89;102854.41;4969435;28;45482;-76
2021/12/16 12:57:31;;;;;;;;;20.25;17.50;;;;;11.71;62.99;102856.25;4972259;28;45423;-83
2021/12/16 12:59:58;;;;;;;;;20.25;15.25;;;;;11.63;62.18;102847.31;4964262;28;45627;-79
2021/12/16 13:02:30;;;;;;;;;22.25;19.50;;;;;11.63;62.34;102856.16;4967271;28;45520;-84
2021/12/16 13:05:06;;;;;;;;;28.50;20.50;;;;;11.58;62.95;102833.13;4963386;28;45504;-79
2021/12/16 13:07:32;;;;;;;;;19.50;18.25;;;;;11.68;62.42;102850.91;4964004;28;45485;-78
2021/12/16 13:10:04;;;;;;;;;22.75;16.00;;;;;11.64;62.36;102849.97;4964217;28;45642;-79
2021/12/16 13:12:48;;;;;;;;;26.00;19.00;;;;;11.61;62.22;102843.75;4975812;28;46188;-77
2021/12/16 13:15:30;;;;;;;;;19.00;17.00;;;;;11.61;62.15;102843.75;4960419;28;45393;-77
2021/12/16 13:23:40;;;;;;;;;26.50;18.50;;;;;11.62;62.57;102830.53;4967595;28;45723;-77
2021/12/16 13:29:05;;;;;;;;;24.25;20.50;;;;;11.72;62.60;102835.06;4966561;28;45430;-83
2021/12/16 13:31:36;;;;;;;;;21.25;19.00;;;;;11.71;62.41;102832.41;4974165;28;45564;-85
2021/12/16 13:34:02;;;;;;;;;25.75;22.25;;;;;11.71;62.57;102829.75;4951249;28;47495;-84
2021/12/16 13:36:46;;;;;;;;;18.25;18.00;;;;;11.70;62.64;102820.03;4972202;28;45384;-83
2021/12/16 13:39:22;;;;;;;;;19.25;18.00;;;;;11.71;62.27;102825.34;4970888;28;45547;-77
2021/12/16 13:42:06;;;;;;;;;19.00;17.75;;;;;11.69;61.91;102827.09;4977915;28;45433;-82
2021/12/16 13:44:50;;;;;;;;;18.75;16.25;;;;;11.67;62.00;102820.88;4976957;28;45527;-83
2021/12/16 13:47:33;;;;;;;;;21.00;19.00;;;;;11.69;62.24;102827.09;4976768;28;45401;-83
2021/12/16 14:01:51;;;;;;;;;15.50;15.00;;;;;11.64;62.51;102823.47;4946888;28;45434;-77
2021/12/16 14:07:51;;;;;;;;;15.75;14.25;;;;;11.53;61.42;102823.38;4965810;28;45449;-83
2021/12/16 14:10:14;;;;;;;;;16.00;11.50;;;;;11.50;61.30;102830.41;4957830;28;45393;-82
2021/12/16 14:16:37;;;;;;;;;17.25;14.50;;;;;11.47;62.00;102818.00;4932314;28;45655;-78
2021/12/16 14:25:02;;;;;;;;;18.00;13.25;;;;;11.47;61.83;102830.34;4971939;28;45450;-82
2021/12/16 14:38:55;;;;;;;;;10.00;7.00;;;;;11.32;61.94;102815.16;4978297;28;45433;-82